createdAt,value
2023-05-06T00:04:26.238Z,10.79
2023-05-06T00:09:34.083Z,10.78
2023-05-06T00:14:41.527Z,10.71
2023-05-06T00:19:49.808Z,10.61
2023-05-06T00:24:58.695Z,10.53
2023-05-06T00:30:07.395Z,10.49
2023-05-06T00:35:16.065Z,10.46
2023-05-06T00:40:23.741Z,10.39
2023-05-06T00:45:31.719Z,10.35
2023-05-06T00:50:42.285Z,10.30
2023-05-06T00:55:50.683Z,10.25
2023-05-06T01:00:59.186Z,10.21
2023-05-06T01:06:14.899Z,10.16
2023-05-06T01:11:33.809Z,10.07
2023-05-06T01:16:44.636Z,10.00
2023-05-06T01:21:56.584Z,9.95
2023-05-06T01:27:04.082Z,9.88
2023-05-06T01:32:41.727Z,9.82
2023-05-06T01:37:54.123Z,9.78
2023-05-06T01:43:03.641Z,9.76
2023-05-06T01:48:12.453Z,9.67
2023-05-06T01:53:20.112Z,9.56
2023-05-06T01:58:27.758Z,9.43
2023-05-06T02:03:35.217Z,9.41
2023-05-06T02:08:43.371Z,9.44
2023-05-06T02:13:50.703Z,9.43
2023-05-06T02:18:58.290Z,9.40
2023-05-06T02:24:06.275Z,9.35
2023-05-06T02:29:14.153Z,9.28
2023-05-06T02:34:21.585Z,9.25
2023-05-06T02:39:29.087Z,9.28
2023-05-06T02:44:36.397Z,9.31
2023-05-06T02:49:43.857Z,9.30
2023-05-06T02:54:51.302Z,9.25
2023-05-06T02:59:59.377Z,9.22
2023-05-06T03:05:08.518Z,9.17
2023-05-06T03:10:16.410Z,9.15
2023-05-06T03:15:25.114Z,9.16
2023-05-06T03:20:32.564Z,9.18
2023-05-06T03:25:39.828Z,9.15
2023-05-06T03:30:47.217Z,9.05
2023-05-06T03:35:56.073Z,8.99
2023-05-06T03:41:04.632Z,8.98
2023-05-06T03:46:12.785Z,8.99
2023-05-06T03:51:20.193Z,9.03
2023-05-06T03:56:28.026Z,9.12
2023-05-06T04:01:35.675Z,9.14
2023-05-06T04:06:43.142Z,9.13
2023-05-06T04:11:50.666Z,9.18
2023-05-06T04:16:58.144Z,9.17
2023-05-06T04:22:05.796Z,9.12
2023-05-06T04:27:16.732Z,9.04
2023-05-06T04:32:25.498Z,9.04
2023-05-06T04:37:33.069Z,9.08
2023-05-06T04:42:40.547Z,9.13
2023-05-06T04:47:49.250Z,9.17
2023-05-06T04:52:57.171Z,9.27
2023-05-06T04:58:06.290Z,9.39
2023-05-06T05:03:17.231Z,9.49
2023-05-06T05:08:24.818Z,9.64
2023-05-06T05:13:31.916Z,9.75
2023-05-06T05:18:39.287Z,9.76
2023-05-06T05:23:46.837Z,9.76
2023-05-06T05:28:54.269Z,9.66
2023-05-06T05:34:02.970Z,9.59
2023-05-06T05:39:11.957Z,9.62
2023-05-06T05:44:19.129Z,9.67
2023-05-06T05:49:28.726Z,9.72
2023-05-06T05:54:37.614Z,9.80
2023-05-06T05:59:45.072Z,9.93
2023-05-06T06:04:52.555Z,10.05
2023-05-06T06:10:00.854Z,10.16
2023-05-06T06:15:10.337Z,10.22
2023-05-06T06:20:18.522Z,10.32
2023-05-06T06:25:25.944Z,10.45
2023-05-06T06:30:33.670Z,10.51
2023-05-06T06:35:41.100Z,10.57
2023-05-06T06:40:48.160Z,10.67
2023-05-06T06:45:56.425Z,10.81
2023-05-06T06:54:44.716Z,11.04
2023-05-06T06:59:53.871Z,11.05
2023-05-06T07:05:01.219Z,11.09
2023-05-06T07:10:12.392Z,11.12
2023-05-06T07:15:19.653Z,11.18
2023-05-06T07:20:27.305Z,11.20
2023-05-06T07:25:36.206Z,11.28
2023-05-06T07:30:43.790Z,11.39
2023-05-06T07:35:51.253Z,11.49
2023-05-06T07:40:58.672Z,11.56
2023-05-06T07:46:07.097Z,11.65
2023-05-06T07:51:14.832Z,11.78
2023-05-06T07:56:22.415Z,11.96
2023-05-06T08:01:30.817Z,12.14
2023-05-06T08:06:38.340Z,12.33
2023-05-06T08:11:45.677Z,12.49
2023-05-06T08:16:54.482Z,12.64
2023-05-06T08:22:01.949Z,12.70
2023-05-06T08:27:10.704Z,12.74
2023-05-06T08:32:18.167Z,12.79
2023-05-06T08:37:25.605Z,12.81
2023-05-06T08:42:34.404Z,12.83
2023-05-06T08:47:42.425Z,12.91
2023-05-06T08:52:52.189Z,13.10
2023-05-06T08:58:01.015Z,13.28
2023-05-06T09:03:08.269Z,13.45
2023-05-06T09:08:16.223Z,13.60
2023-05-06T09:13:23.927Z,13.80
2023-05-06T09:18:33.622Z,14.07
2023-05-06T09:23:41.107Z,14.24
2023-05-06T09:28:50.159Z,14.36
2023-05-06T09:33:59.485Z,14.43
2023-05-06T09:39:07.131Z,14.47
2023-05-06T09:44:14.903Z,14.55
2023-05-06T09:49:22.448Z,14.64
2023-05-06T09:54:30.646Z,14.75
2023-05-06T09:59:39.622Z,14.86
2023-05-06T10:04:50.025Z,15.01
2023-05-06T10:09:58.373Z,15.20
2023-05-06T10:15:06.820Z,15.40
2023-05-06T10:20:17.952Z,15.60
2023-05-06T10:25:36.817Z,15.82
2023-05-06T10:30:44.592Z,15.95
2023-05-06T10:35:58.708Z,16.05
2023-05-06T10:41:08.611Z,16.11
2023-05-06T10:46:17.458Z,16.10
2023-05-06T10:51:29.379Z,16.05
2023-05-06T10:56:38.440Z,16.02
2023-05-06T11:01:46.728Z,15.98
2023-05-06T11:06:55.618Z,15.93
2023-05-06T11:12:04.990Z,15.83
2023-05-06T11:17:29.859Z,15.67
2023-05-06T11:22:43.871Z,15.48
2023-05-06T11:27:51.413Z,15.23
2023-05-06T11:33:03.853Z,14.97
2023-05-06T11:38:12.687Z,14.76
2023-05-06T11:43:20.349Z,14.51
2023-05-06T11:53:29.018Z,14.11
2023-05-06T11:58:36.667Z,13.93
2023-05-06T12:03:44.071Z,13.78
2023-05-06T12:08:51.568Z,13.62
2023-05-06T12:13:59.318Z,13.48
2023-05-06T12:19:07.710Z,13.32
2023-05-06T12:24:15.312Z,13.17
2023-05-06T12:29:23.273Z,13.07
2023-05-06T12:34:39.763Z,12.99
2023-05-06T12:39:46.992Z,12.96
2023-05-06T12:44:54.384Z,13.04
2023-05-06T12:50:02.214Z,13.07
2023-05-06T12:55:11.044Z,13.13
2023-05-06T13:00:20.108Z,13.21
2023-05-06T13:05:27.632Z,13.22
2023-05-06T13:10:35.189Z,13.23
2023-05-06T13:15:42.690Z,13.23
2023-05-06T13:20:50.669Z,13.22
2023-05-06T13:26:04.716Z,13.24
2023-05-06T13:31:12.608Z,13.29
2023-05-06T13:36:20.024Z,13.28
2023-05-06T13:41:27.347Z,13.20
2023-05-06T13:46:34.598Z,12.93
2023-05-06T13:51:42.369Z,12.84
2023-05-06T13:56:51.522Z,12.89
2023-05-06T14:01:59.044Z,12.93
2023-05-06T14:07:06.796Z,12.86
2023-05-06T14:12:14.234Z,12.69
2023-05-06T14:17:21.700Z,12.69
2023-05-06T14:22:28.921Z,12.74
2023-05-06T14:27:37.682Z,12.76
2023-05-06T14:32:44.965Z,12.82
2023-05-06T14:37:52.927Z,12.83
2023-05-06T14:43:00.587Z,12.91
2023-05-06T14:48:08.878Z,12.93
2023-05-06T14:53:16.341Z,12.97
2023-05-06T14:58:23.466Z,13.09
2023-05-06T15:03:30.908Z,13.25
2023-05-06T15:08:38.393Z,13.38
2023-05-06T15:13:46.407Z,13.43
2023-05-06T15:18:53.709Z,13.45
2023-05-06T15:24:02.235Z,13.49
2023-05-06T15:29:09.608Z,13.59
2023-05-06T15:34:17.146Z,13.64
2023-05-06T15:39:25.025Z,13.65
2023-05-06T15:44:33.306Z,13.66
2023-05-06T15:54:50.963Z,13.63
2023-05-06T15:59:59.425Z,13.64
2023-05-06T16:05:10.008Z,13.70
2023-05-06T16:10:17.532Z,13.78
2023-05-06T16:15:25.368Z,13.86
2023-05-06T16:20:33.114Z,13.87
2023-05-06T16:25:40.523Z,13.77
2023-05-06T16:30:49.545Z,13.67
2023-05-06T16:35:57.257Z,13.65
2023-05-06T16:41:05.428Z,13.57
2023-05-06T16:46:13.005Z,13.55
2023-05-06T16:51:20.350Z,13.50
2023-05-06T16:56:36.780Z,13.44
2023-05-06T17:01:52.108Z,13.38
2023-05-06T17:07:02.437Z,13.32
2023-05-06T17:12:11.221Z,13.30
2023-05-06T17:17:20.262Z,13.29
2023-05-06T17:22:29.993Z,13.25
2023-05-06T17:27:37.429Z,13.22
2023-05-06T17:32:45.025Z,13.17
2023-05-06T17:37:53.676Z,13.15
2023-05-06T17:43:00.917Z,13.14
2023-05-06T17:48:08.907Z,13.09
2023-05-06T17:53:16.661Z,13.02
2023-05-06T17:58:24.316Z,13.00
2023-05-06T18:03:31.858Z,13.00
2023-05-06T18:08:39.301Z,12.96
2023-05-06T18:13:46.998Z,12.89
2023-05-06T18:18:54.160Z,12.79
2023-05-06T18:24:15.342Z,12.68
2023-05-06T18:29:24.326Z,12.64
2023-05-06T18:34:31.455Z,12.57
2023-05-06T18:39:43.033Z,12.50
2023-05-06T18:44:51.408Z,12.41
2023-05-06T18:50:01.060Z,12.31
2023-05-06T18:55:09.991Z,12.22
2023-05-06T19:00:18.688Z,12.15
2023-05-06T19:05:26.491Z,12.08
2023-05-06T19:10:35.228Z,12.02
2023-05-06T19:15:43.177Z,11.95
2023-05-06T19:20:51.180Z,11.90
2023-05-06T19:25:59.201Z,11.89
2023-05-06T19:31:10.584Z,11.90
2023-05-06T19:36:18.855Z,11.89
2023-05-06T19:41:26.585Z,11.87
2023-05-06T19:46:33.966Z,11.86
2023-05-06T19:51:41.269Z,11.85
2023-05-06T19:56:48.731Z,11.87
2023-05-06T20:01:58.830Z,11.88
2023-05-06T20:07:06.607Z,11.87
2023-05-06T20:12:14.366Z,11.86
2023-05-06T20:17:21.768Z,11.85
2023-05-06T20:22:31.899Z,11.81
2023-05-06T20:27:39.600Z,11.80
2023-05-06T20:32:48.273Z,11.81
2023-05-06T20:37:56.875Z,11.81
2023-05-06T20:43:04.128Z,11.80
2023-05-06T20:48:13.007Z,11.79
2023-05-06T20:53:22.667Z,11.75
2023-05-06T20:58:30.074Z,11.70
2023-05-06T21:03:37.587Z,11.66
2023-05-06T21:08:45.932Z,11.62
2023-05-06T21:13:53.536Z,11.58
2023-05-06T21:19:01.025Z,11.55
2023-05-06T21:24:09.066Z,11.55
2023-05-06T21:29:16.560Z,11.54
2023-05-06T21:34:24.517Z,11.51
2023-05-06T21:39:31.851Z,11.49
2023-05-06T21:44:40.336Z,11.46
2023-05-06T21:49:48.334Z,11.43
2023-05-06T21:54:56.593Z,11.42
2023-05-06T22:00:08.877Z,11.38
2023-05-06T22:05:16.327Z,11.33
2023-05-06T22:10:23.426Z,11.31
2023-05-06T22:15:30.706Z,11.32
2023-05-06T22:20:37.875Z,11.31
2023-05-06T22:25:45.510Z,11.30
2023-05-06T22:30:53.189Z,11.28
2023-05-06T22:36:01.046Z,11.29
2023-05-06T22:41:08.303Z,11.24
2023-05-06T22:46:16.096Z,11.21
2023-05-06T22:51:23.524Z,11.21
2023-05-06T22:56:30.774Z,11.24
2023-05-06T23:01:38.829Z,11.23
2023-05-06T23:06:46.560Z,11.20
2023-05-06T23:11:53.798Z,11.16
2023-05-06T23:17:01.517Z,11.11
2023-05-06T23:22:09.098Z,11.10
2023-05-06T23:27:17.776Z,11.08
2023-05-06T23:32:25.213Z,10.88
2023-05-06T23:37:33.013Z,10.67
2023-05-06T23:42:41.890Z,10.57
2023-05-06T23:47:49.719Z,10.45
2023-05-06T23:52:57.431Z,10.29
2023-05-06T23:58:05.023Z,10.21
